sensor_id;sensor_type;location;lat;lon;timestamp;P1;durP1;ratioP1;P2;durP2;ratioP2
41689;SDS011;27372;42.658;23.256;2023-07-20T00:01:34;7.65;;;2.92;;
41689;SDS011;27372;42.658;23.256;2023-07-20T00:03:59;8.20;;;2.90;;
41689;SDS011;27372;42.658;23.256;2023-07-20T00:06:25;8.40;;;3.13;;
41689;SDS011;27372;42.658;23.256;2023-07-20T00:08:52;8.90;;;3.05;;
41689;SDS011;27372;42.658;23.256;2023-07-20T00:11:21;11.65;;;3.40;;
41689;SDS011;27372;42.658;23.256;2023-07-20T00:13:50;8.27;;;3.30;;
41689;SDS011;27372;42.658;23.256;2023-07-20T00:16:16;14.05;;;3.40;;
41689;SDS011;27372;42.658;23.256;2023-07-20T00:18:41;10.30;;;3.13;;
41689;SDS011;27372;42.658;23.256;2023-07-20T00:21:13;10.18;;;3.40;;
41689;SDS011;27372;42.658;23.256;2023-07-20T00:23:41;10.27;;;3.30;;
41689;SDS011;27372;42.658;23.256;2023-07-20T00:26:09;9.02;;;3.00;;
41689;SDS011;27372;42.658;23.256;2023-07-20T00:28:36;10.68;;;3.03;;
41689;SDS011;27372;42.658;23.256;2023-07-20T00:31:01;7.55;;;3.10;;
41689;SDS011;27372;42.658;23.256;2023-07-20T00:33:27;10.13;;;3.00;;
41689;SDS011;27372;42.658;23.256;2023-07-20T00:35:53;9.73;;;3.25;;
41689;SDS011;27372;42.658;23.256;2023-07-20T00:38:18;11.95;;;3.10;;
41689;SDS011;27372;42.658;23.256;2023-07-20T00:40:44;12.75;;;3.22;;
41689;SDS011;27372;42.658;23.256;2023-07-20T00:43:09;9.18;;;3.17;;
41689;SDS011;27372;42.658;23.256;2023-07-20T00:45:35;12.32;;;3.15;;
41689;SDS011;27372;42.658;23.256;2023-07-20T00:48:02;11.43;;;3.03;;
41689;SDS011;27372;42.658;23.256;2023-07-20T00:50:29;9.85;;;3.03;;
41689;SDS011;27372;42.658;23.256;2023-07-20T00:53:19;11.00;;;3.15;;
41689;SDS011;27372;42.658;23.256;2023-07-20T00:55:48;12.57;;;3.33;;
41689;SDS011;27372;42.658;23.256;2023-07-20T00:58:17;10.07;;;3.00;;
41689;SDS011;27372;42.658;23.256;2023-07-20T01:00:42;9.00;;;2.97;;
41689;SDS011;27372;42.658;23.256;2023-07-20T01:03:07;18.55;;;4.28;;
41689;SDS011;27372;42.658;23.256;2023-07-20T01:08:27;12.68;;;2.65;;
41689;SDS011;27372;42.658;23.256;2023-07-20T01:11:16;11.15;;;3.50;;
41689;SDS011;27372;42.658;23.256;2023-07-20T01:13:53;8.32;;;3.17;;
41689;SDS011;27372;42.658;23.256;2023-07-20T01:16:19;10.15;;;3.00;;
41689;SDS011;27372;42.658;23.256;2023-07-20T01:18:44;12.50;;;2.85;;
41689;SDS011;27372;42.658;23.256;2023-07-20T01:21:13;11.27;;;3.65;;
41689;SDS011;27372;42.658;23.256;2023-07-20T01:26:38;7.15;;;2.92;;
41689;SDS011;27372;42.658;23.256;2023-07-20T01:31:42;9.00;;;3.00;;
41689;SDS011;27372;42.658;23.256;2023-07-20T01:34:09;13.60;;;3.60;;
41689;SDS011;27372;42.658;23.256;2023-07-20T01:36:45;8.75;;;3.28;;
41689;SDS011;27372;42.658;23.256;2023-07-20T01:39:15;9.02;;;2.95;;
41689;SDS011;27372;42.658;23.256;2023-07-20T01:41:48;11.15;;;3.28;;
41689;SDS011;27372;42.658;23.256;2023-07-20T01:44:13;12.23;;;3.63;;
41689;SDS011;27372;42.658;23.256;2023-07-20T01:46:39;12.45;;;3.30;;
41689;SDS011;27372;42.658;23.256;2023-07-20T01:49:04;13.48;;;3.60;;
41689;SDS011;27372;42.658;23.256;2023-07-20T01:51:30;14.10;;;3.35;;
41689;SDS011;27372;42.658;23.256;2023-07-20T01:53:55;11.80;;;3.70;;
41689;SDS011;27372;42.658;23.256;2023-07-20T01:56:21;11.30;;;3.20;;
41689;SDS011;27372;42.658;23.256;2023-07-20T02:01:39;10.68;;;3.58;;
41689;SDS011;27372;42.658;23.256;2023-07-20T02:04:06;6.55;;;3.00;;
41689;SDS011;27372;42.658;23.256;2023-07-20T02:06:34;11.02;;;3.20;;
41689;SDS011;27372;42.658;23.256;2023-07-20T02:09:02;10.25;;;3.10;;
41689;SDS011;27372;42.658;23.256;2023-07-20T02:11:28;11.75;;;3.40;;
41689;SDS011;27372;42.658;23.256;2023-07-20T02:17:04;12.02;;;3.55;;
41689;SDS011;27372;42.658;23.256;2023-07-20T02:19:30;14.32;;;4.30;;
41689;SDS011;27372;42.658;23.256;2023-07-20T02:21:55;10.75;;;3.45;;
41689;SDS011;27372;42.658;23.256;2023-07-20T02:24:21;12.63;;;3.72;;
41689;SDS011;27372;42.658;23.256;2023-07-20T02:26:46;10.15;;;3.85;;
41689;SDS011;27372;42.658;23.256;2023-07-20T02:29:12;8.07;;;3.42;;
41689;SDS011;27372;42.658;23.256;2023-07-20T02:31:37;11.85;;;3.97;;
41689;SDS011;27372;42.658;23.256;2023-07-20T02:34:04;11.02;;;3.50;;
41689;SDS011;27372;42.658;23.256;2023-07-20T02:36:30;7.90;;;3.40;;
41689;SDS011;27372;42.658;23.256;2023-07-20T02:38:57;9.75;;;3.40;;
41689;SDS011;27372;42.658;23.256;2023-07-20T02:41:23;12.70;;;3.80;;
41689;SDS011;27372;42.658;23.256;2023-07-20T02:43:49;9.15;;;3.47;;
41689;SDS011;27372;42.658;23.256;2023-07-20T02:46:14;11.38;;;3.65;;
41689;SDS011;27372;42.658;23.256;2023-07-20T02:48:42;9.13;;;3.20;;
41689;SDS011;27372;42.658;23.256;2023-07-20T02:51:11;12.82;;;3.50;;
41689;SDS011;27372;42.658;23.256;2023-07-20T02:53:39;10.38;;;3.38;;
41689;SDS011;27372;42.658;23.256;2023-07-20T02:56:04;10.88;;;3.70;;
41689;SDS011;27372;42.658;23.256;2023-07-20T02:58:41;10.65;;;3.20;;
41689;SDS011;27372;42.658;23.256;2023-07-20T03:01:10;12.02;;;3.40;;
41689;SDS011;27372;42.658;23.256;2023-07-20T03:03:37;9.20;;;3.67;;
41689;SDS011;27372;42.658;23.256;2023-07-20T03:06:03;14.75;;;4.05;;
41689;SDS011;27372;42.658;23.256;2023-07-20T03:08:48;14.13;;;4.00;;
41689;SDS011;27372;42.658;23.256;2023-07-20T03:11:17;12.65;;;3.50;;
41689;SDS011;27372;42.658;23.256;2023-07-20T03:13:43;9.30;;;4.22;;
41689;SDS011;27372;42.658;23.256;2023-07-20T03:16:14;11.82;;;4.05;;
41689;SDS011;27372;42.658;23.256;2023-07-20T03:18:43;10.13;;;3.22;;
41689;SDS011;27372;42.658;23.256;2023-07-20T03:21:10;8.38;;;3.70;;
41689;SDS011;27372;42.658;23.256;2023-07-20T03:23:38;7.70;;;3.30;;
41689;SDS011;27372;42.658;23.256;2023-07-20T03:26:04;9.60;;;3.50;;
41689;SDS011;27372;42.658;23.256;2023-07-20T03:28:35;9.93;;;3.60;;
41689;SDS011;27372;42.658;23.256;2023-07-20T03:31:01;7.50;;;3.53;;
41689;SDS011;27372;42.658;23.256;2023-07-20T03:33:28;11.25;;;3.75;;
41689;SDS011;27372;42.658;23.256;2023-07-20T03:35:54;11.48;;;3.80;;
41689;SDS011;27372;42.658;23.256;2023-07-20T03:38:23;11.75;;;3.80;;
41689;SDS011;27372;42.658;23.256;2023-07-20T03:40:55;8.82;;;3.33;;
41689;SDS011;27372;42.658;23.256;2023-07-20T03:43:22;8.75;;;3.40;;
41689;SDS011;27372;42.658;23.256;2023-07-20T03:45:51;13.95;;;4.45;;
41689;SDS011;27372;42.658;23.256;2023-07-20T03:48:19;7.05;;;3.45;;
41689;SDS011;27372;42.658;23.256;2023-07-20T03:53:12;13.75;;;3.42;;
41689;SDS011;27372;42.658;23.256;2023-07-20T03:55:39;10.73;;;4.22;;
41689;SDS011;27372;42.658;23.256;2023-07-20T03:58:07;7.90;;;3.90;;
41689;SDS011;27372;42.658;23.256;2023-07-20T04:00:33;9.65;;;3.80;;
41689;SDS011;27372;42.658;23.256;2023-07-20T04:03:00;10.93;;;4.38;;
41689;SDS011;27372;42.658;23.256;2023-07-20T04:05:25;12.02;;;4.05;;
41689;SDS011;27372;42.658;23.256;2023-07-20T04:07:51;11.27;;;3.67;;
41689;SDS011;27372;42.658;23.256;2023-07-20T04:10:17;12.38;;;3.75;;
41689;SDS011;27372;42.658;23.256;2023-07-20T04:12:43;10.93;;;3.90;;
41689;SDS011;27372;42.658;23.256;2023-07-20T04:15:12;11.00;;;3.63;;
41689;SDS011;27372;42.658;23.256;2023-07-20T04:17:44;17.23;;;4.30;;
41689;SDS011;27372;42.658;23.256;2023-07-20T04:20:10;14.63;;;4.00;;
41689;SDS011;27372;42.658;23.256;2023-07-20T04:22:38;10.33;;;3.80;;
41689;SDS011;27372;42.658;23.256;2023-07-20T04:25:03;16.50;;;3.70;;
41689;SDS011;27372;42.658;23.256;2023-07-20T04:27:29;9.90;;;3.72;;
41689;SDS011;27372;42.658;23.256;2023-07-20T04:29:55;10.73;;;3.83;;
41689;SDS011;27372;42.658;23.256;2023-07-20T04:32:21;14.98;;;3.90;;
41689;SDS011;27372;42.658;23.256;2023-07-20T04:34:46;12.05;;;3.83;;
41689;SDS011;27372;42.658;23.256;2023-07-20T04:37:13;13.05;;;3.60;;
41689;SDS011;27372;42.658;23.256;2023-07-20T04:39:39;12.30;;;4.00;;
41689;SDS011;27372;42.658;23.256;2023-07-20T04:42:04;14.35;;;4.13;;
41689;SDS011;27372;42.658;23.256;2023-07-20T04:44:30;16.73;;;4.57;;
41689;SDS011;27372;42.658;23.256;2023-07-20T04:46:55;14.13;;;3.90;;
41689;SDS011;27372;42.658;23.256;2023-07-20T04:49:21;12.73;;;3.72;;
41689;SDS011;27372;42.658;23.256;2023-07-20T04:51:46;13.65;;;3.97;;
41689;SDS011;27372;42.658;23.256;2023-07-20T04:54:14;16.13;;;3.72;;
41689;SDS011;27372;42.658;23.256;2023-07-20T04:56:41;12.52;;;3.90;;
41689;SDS011;27372;42.658;23.256;2023-07-20T04:59:06;11.35;;;3.70;;
41689;SDS011;27372;42.658;23.256;2023-07-20T05:01:32;12.75;;;3.65;;
41689;SDS011;27372;42.658;23.256;2023-07-20T05:04:00;18.90;;;3.80;;
41689;SDS011;27372;42.658;23.256;2023-07-20T05:06:25;16.20;;;3.85;;
41689;SDS011;27372;42.658;23.256;2023-07-20T05:08:51;12.38;;;3.90;;
41689;SDS011;27372;42.658;23.256;2023-07-20T05:11:16;14.90;;;4.45;;
41689;SDS011;27372;42.658;23.256;2023-07-20T05:13:42;16.70;;;4.65;;
41689;SDS011;27372;42.658;23.256;2023-07-20T05:16:07;16.10;;;4.60;;
41689;SDS011;27372;42.658;23.256;2023-07-20T05:18:33;11.98;;;4.38;;
41689;SDS011;27372;42.658;23.256;2023-07-20T05:20:58;4.75;;;3.55;;
41689;SDS011;27372;42.658;23.256;2023-07-20T05:23:34;14.52;;;4.28;;
41689;SDS011;27372;42.658;23.256;2023-07-20T05:26:00;11.55;;;4.40;;
41689;SDS011;27372;42.658;23.256;2023-07-20T10:21:25;11.85;;;2.50;;
41689;SDS011;27372;42.658;23.256;2023-07-20T10:23:54;9.20;;;2.45;;
41689;SDS011;27372;42.658;23.256;2023-07-20T10:26:21;9.80;;;2.60;;
41689;SDS011;27372;42.658;23.256;2023-07-20T10:28:46;10.02;;;2.88;;
41689;SDS011;27372;42.658;23.256;2023-07-20T10:31:12;9.25;;;2.90;;
41689;SDS011;27372;42.658;23.256;2023-07-20T10:33:40;7.65;;;2.42;;
41689;SDS011;27372;42.658;23.256;2023-07-20T10:36:06;7.65;;;2.60;;
41689;SDS011;27372;42.658;23.256;2023-07-20T10:39:14;11.13;;;2.97;;
41689;SDS011;27372;42.658;23.256;2023-07-20T10:44:05;7.68;;;2.40;;
41689;SDS011;27372;42.658;23.256;2023-07-20T10:49:08;7.78;;;2.42;;
41689;SDS011;27372;42.658;23.256;2023-07-20T10:51:39;9.05;;;3.22;;
41689;SDS011;27372;42.658;23.256;2023-07-20T10:56:41;7.72;;;2.90;;
41689;SDS011;27372;42.658;23.256;2023-07-20T10:59:17;8.43;;;3.20;;
41689;SDS011;27372;42.658;23.256;2023-07-20T11:01:47;11.88;;;3.58;;
41689;SDS011;27372;42.658;23.256;2023-07-20T11:04:14;11.05;;;3.45;;
41689;SDS011;27372;42.658;23.256;2023-07-20T11:06:45;11.00;;;3.75;;
41689;SDS011;27372;42.658;23.256;2023-07-20T11:09:12;8.07;;;3.55;;
41689;SDS011;27372;42.658;23.256;2023-07-20T11:11:42;9.73;;;3.92;;
41689;SDS011;27372;42.658;23.256;2023-07-20T11:14:21;10.55;;;3.78;;
41689;SDS011;27372;42.658;23.256;2023-07-20T11:16:50;10.98;;;3.90;;
41689;SDS011;27372;42.658;23.256;2023-07-20T11:19:17;7.72;;;3.83;;
41689;SDS011;27372;42.658;23.256;2023-07-20T11:21:44;10.90;;;4.00;;
41689;SDS011;27372;42.658;23.256;2023-07-20T11:24:19;10.25;;;3.85;;
41689;SDS011;27372;42.658;23.256;2023-07-20T11:26:49;5.50;;;3.70;;
41689;SDS011;27372;42.658;23.256;2023-07-20T11:29:22;10.00;;;4.22;;
41689;SDS011;27372;42.658;23.256;2023-07-20T11:31:49;9.55;;;4.00;;
41689;SDS011;27372;42.658;23.256;2023-07-20T11:34:16;8.65;;;4.43;;
41689;SDS011;27372;42.658;23.256;2023-07-20T11:36:52;11.75;;;4.40;;
41689;SDS011;27372;42.658;23.256;2023-07-20T11:39:18;12.10;;;4.65;;
41689;SDS011;27372;42.658;23.256;2023-07-20T11:41:52;9.27;;;4.40;;
41689;SDS011;27372;42.658;23.256;2023-07-20T11:44:27;12.57;;;4.53;;
41689;SDS011;27372;42.658;23.256;2023-07-20T11:47:08;9.95;;;4.68;;
41689;SDS011;27372;42.658;23.256;2023-07-20T11:49:41;12.20;;;4.80;;
41689;SDS011;27372;42.658;23.256;2023-07-20T11:52:16;6.32;;;4.00;;
41689;SDS011;27372;42.658;23.256;2023-07-20T11:54:45;13.68;;;4.30;;
41689;SDS011;27372;42.658;23.256;2023-07-20T11:57:16;10.75;;;4.25;;
41689;SDS011;27372;42.658;23.256;2023-07-20T11:59:54;9.00;;;3.97;;
41689;SDS011;27372;42.658;23.256;2023-07-20T12:02:26;7.45;;;3.65;;
41689;SDS011;27372;42.658;23.256;2023-07-20T12:04:53;7.05;;;3.42;;
41689;SDS011;27372;42.658;23.256;2023-07-20T12:07:19;6.10;;;3.70;;
41689;SDS011;27372;42.658;23.256;2023-07-20T12:10:02;8.77;;;3.70;;
41689;SDS011;27372;42.658;23.256;2023-07-20T12:12:31;10.07;;;4.05;;
41689;SDS011;27372;42.658;23.256;2023-07-20T12:15:12;7.00;;;3.60;;
41689;SDS011;27372;42.658;23.256;2023-07-20T12:17:57;12.57;;;3.95;;
41689;SDS011;27372;42.658;23.256;2023-07-20T12:20:24;8.18;;;3.50;;
41689;SDS011;27372;42.658;23.256;2023-07-20T12:23:19;12.00;;;3.25;;
41689;SDS011;27372;42.658;23.256;2023-07-20T12:25:47;15.63;;;3.40;;
41689;SDS011;27372;42.658;23.256;2023-07-20T12:28:16;9.93;;;3.53;;
41689;SDS011;27372;42.658;23.256;2023-07-20T12:30:45;6.70;;;2.78;;
41689;SDS011;27372;42.658;23.256;2023-07-20T12:33:11;7.13;;;3.20;;
41689;SDS011;27372;42.658;23.256;2023-07-20T12:35:40;9.40;;;3.15;;
41689;SDS011;27372;42.658;23.256;2023-07-20T12:38:06;9.60;;;2.97;;
41689;SDS011;27372;42.658;23.256;2023-07-20T12:40:36;9.60;;;3.22;;
41689;SDS011;27372;42.658;23.256;2023-07-20T12:43:05;10.35;;;3.15;;
41689;SDS011;27372;42.658;23.256;2023-07-20T12:45:39;9.85;;;3.17;;
41689;SDS011;27372;42.658;23.256;2023-07-20T12:48:06;10.95;;;3.25;;
41689;SDS011;27372;42.658;23.256;2023-07-20T12:52:59;5.17;;;2.83;;
41689;SDS011;27372;42.658;23.256;2023-07-20T12:55:34;8.77;;;3.25;;
41689;SDS011;27372;42.658;23.256;2023-07-20T12:58:02;8.85;;;3.03;;
41689;SDS011;27372;42.658;23.256;2023-07-20T13:00:31;8.05;;;2.92;;
41689;SDS011;27372;42.658;23.256;2023-07-20T13:02:59;9.65;;;3.45;;
41689;SDS011;27372;42.658;23.256;2023-07-20T13:05:27;7.57;;;3.30;;
41689;SDS011;27372;42.658;23.256;2023-07-20T13:07:52;9.40;;;3.20;;
41689;SDS011;27372;42.658;23.256;2023-07-20T13:10:18;6.50;;;3.03;;
41689;SDS011;27372;42.658;23.256;2023-07-20T13:12:44;8.57;;;2.92;;
41689;SDS011;27372;42.658;23.256;2023-07-20T13:15:10;9.40;;;3.08;;
41689;SDS011;27372;42.658;23.256;2023-07-20T13:17:36;10.77;;;3.05;;
41689;SDS011;27372;42.658;23.256;2023-07-20T13:20:03;8.63;;;3.10;;
41689;SDS011;27372;42.658;23.256;2023-07-20T13:22:30;10.65;;;2.90;;
41689;SDS011;27372;42.658;23.256;2023-07-20T13:24:56;11.25;;;3.17;;
41689;SDS011;27372;42.658;23.256;2023-07-20T13:27:24;11.95;;;3.00;;
41689;SDS011;27372;42.658;23.256;2023-07-20T13:29:55;7.10;;;2.70;;
41689;SDS011;27372;42.658;23.256;2023-07-20T13:32:27;9.40;;;3.20;;
41689;SDS011;27372;42.658;23.256;2023-07-20T13:34:52;7.80;;;3.05;;
41689;SDS011;27372;42.658;23.256;2023-07-20T13:37:18;11.15;;;3.10;;
41689;SDS011;27372;42.658;23.256;2023-07-20T13:39:43;9.27;;;3.10;;
41689;SDS011;27372;42.658;23.256;2023-07-20T13:42:11;7.38;;;2.80;;
41689;SDS011;27372;42.658;23.256;2023-07-20T13:44:37;11.70;;;3.28;;
41689;SDS011;27372;42.658;23.256;2023-07-20T13:47:03;10.57;;;3.05;;
41689;SDS011;27372;42.658;23.256;2023-07-20T13:49:32;9.82;;;2.88;;
41689;SDS011;27372;42.658;23.256;2023-07-20T13:51:57;11.98;;;3.13;;
41689;SDS011;27372;42.658;23.256;2023-07-20T13:54:23;27.40;;;3.97;;
41689;SDS011;27372;42.658;23.256;2023-07-20T13:56:49;11.63;;;3.15;;
41689;SDS011;27372;42.658;23.256;2023-07-20T13:59:15;12.90;;;3.13;;
41689;SDS011;27372;42.658;23.256;2023-07-20T14:01:41;9.70;;;2.50;;
41689;SDS011;27372;42.658;23.256;2023-07-20T14:04:06;6.30;;;2.70;;
41689;SDS011;27372;42.658;23.256;2023-07-20T14:06:32;8.27;;;2.70;;
41689;SDS011;27372;42.658;23.256;2023-07-20T14:09:01;6.90;;;2.50;;
41689;SDS011;27372;42.658;23.256;2023-07-20T14:11:28;10.45;;;2.70;;
41689;SDS011;27372;42.658;23.256;2023-07-20T14:13:54;9.25;;;2.63;;
41689;SDS011;27372;42.658;23.256;2023-07-20T14:16:19;9.38;;;2.97;;
41689;SDS011;27372;42.658;23.256;2023-07-20T14:18:46;13.40;;;3.15;;
41689;SDS011;27372;42.658;23.256;2023-07-20T14:21:13;7.03;;;2.70;;
41689;SDS011;27372;42.658;23.256;2023-07-20T14:23:39;10.02;;;2.65;;
41689;SDS011;27372;42.658;23.256;2023-07-20T14:26:04;7.35;;;2.90;;
41689;SDS011;27372;42.658;23.256;2023-07-20T14:28:33;8.75;;;2.90;;
41689;SDS011;27372;42.658;23.256;2023-07-20T14:31:07;12.45;;;2.83;;
41689;SDS011;27372;42.658;23.256;2023-07-20T14:33:33;7.60;;;2.50;;
41689;SDS011;27372;42.658;23.256;2023-07-20T14:35:59;8.40;;;2.78;;
41689;SDS011;27372;42.658;23.256;2023-07-20T14:38:31;9.20;;;2.80;;
41689;SDS011;27372;42.658;23.256;2023-07-20T14:41:00;10.52;;;2.83;;
41689;SDS011;27372;42.658;23.256;2023-07-20T14:43:26;5.57;;;2.38;;
41689;SDS011;27372;42.658;23.256;2023-07-20T14:46:02;10.65;;;2.92;;
41689;SDS011;27372;42.658;23.256;2023-07-20T14:48:40;8.27;;;2.45;;
41689;SDS011;27372;42.658;23.256;2023-07-20T14:51:05;8.80;;;2.72;;
41689;SDS011;27372;42.658;23.256;2023-07-20T14:53:33;10.75;;;3.15;;
41689;SDS011;27372;42.658;23.256;2023-07-20T14:56:20;13.95;;;3.00;;
41689;SDS011;27372;42.658;23.256;2023-07-20T14:58:53;14.00;;;3.10;;
41689;SDS011;27372;42.658;23.256;2023-07-20T15:01:29;12.18;;;3.00;;
41689;SDS011;27372;42.658;23.256;2023-07-20T15:03:56;8.90;;;2.90;;
41689;SDS011;27372;42.658;23.256;2023-07-20T15:06:26;10.23;;;2.70;;
41689;SDS011;27372;42.658;23.256;2023-07-20T15:08:55;6.25;;;2.67;;
41689;SDS011;27372;42.658;23.256;2023-07-20T15:11:27;7.07;;;2.60;;
41689;SDS011;27372;42.658;23.256;2023-07-20T15:13:55;10.52;;;2.45;;
41689;SDS011;27372;42.658;23.256;2023-07-20T15:16:21;6.68;;;2.80;;
41689;SDS011;27372;42.658;23.256;2023-07-20T15:18:55;12.82;;;2.47;;
41689;SDS011;27372;42.658;23.256;2023-07-20T15:21:24;13.68;;;3.00;;
41689;SDS011;27372;42.658;23.256;2023-07-20T15:23:50;22.02;;;3.30;;
41689;SDS011;27372;42.658;23.256;2023-07-20T15:26:16;8.30;;;2.83;;
41689;SDS011;27372;42.658;23.256;2023-07-20T15:28:41;8.15;;;3.20;;
41689;SDS011;27372;42.658;23.256;2023-07-20T15:31:07;11.10;;;2.95;;
41689;SDS011;27372;42.658;23.256;2023-07-20T15:33:32;10.68;;;2.40;;
41689;SDS011;27372;42.658;23.256;2023-07-20T15:35:58;5.93;;;2.42;;
41689;SDS011;27372;42.658;23.256;2023-07-20T15:38:25;8.88;;;2.70;;
41689;SDS011;27372;42.658;23.256;2023-07-20T15:40:51;7.75;;;2.88;;
41689;SDS011;27372;42.658;23.256;2023-07-20T15:43:19;9.38;;;2.83;;
41689;SDS011;27372;42.658;23.256;2023-07-20T15:45:47;9.70;;;2.53;;
41689;SDS011;27372;42.658;23.256;2023-07-20T15:48:16;6.88;;;2.67;;
41689;SDS011;27372;42.658;23.256;2023-07-20T15:50:43;9.95;;;2.88;;
41689;SDS011;27372;42.658;23.256;2023-07-20T15:53:10;11.02;;;2.90;;
41689;SDS011;27372;42.658;23.256;2023-07-20T15:55:38;7.80;;;3.05;;
41689;SDS011;27372;42.658;23.256;2023-07-20T15:58:03;16.15;;;2.97;;
41689;SDS011;27372;42.658;23.256;2023-07-20T16:00:29;14.73;;;2.85;;
41689;SDS011;27372;42.658;23.256;2023-07-20T16:02:54;11.45;;;2.60;;
41689;SDS011;27372;42.658;23.256;2023-07-20T16:05:21;7.88;;;2.58;;
41689;SDS011;27372;42.658;23.256;2023-07-20T16:07:46;7.07;;;3.08;;
41689;SDS011;27372;42.658;23.256;2023-07-20T16:10:12;8.88;;;2.58;;
41689;SDS011;27372;42.658;23.256;2023-07-20T16:12:38;8.25;;;2.50;;
41689;SDS011;27372;42.658;23.256;2023-07-20T16:15:09;7.05;;;2.85;;
41689;SDS011;27372;42.658;23.256;2023-07-20T16:17:35;10.00;;;2.38;;
41689;SDS011;27372;42.658;23.256;2023-07-20T16:20:01;5.30;;;2.22;;
41689;SDS011;27372;42.658;23.256;2023-07-20T16:22:29;6.40;;;2.50;;
41689;SDS011;27372;42.658;23.256;2023-07-20T16:24:57;4.80;;;2.60;;
41689;SDS011;27372;42.658;23.256;2023-07-20T16:27:25;7.90;;;2.50;;
41689;SDS011;27372;42.658;23.256;2023-07-20T16:29:59;6.95;;;2.30;;
41689;SDS011;27372;42.658;23.256;2023-07-20T16:32:33;7.00;;;2.40;;
41689;SDS011;27372;42.658;23.256;2023-07-20T16:35:02;9.52;;;2.75;;
41689;SDS011;27372;42.658;23.256;2023-07-20T16:37:27;19.55;;;2.90;;
41689;SDS011;27372;42.658;23.256;2023-07-20T16:39:55;12.88;;;2.80;;
41689;SDS011;27372;42.658;23.256;2023-07-20T16:42:24;6.43;;;2.40;;
41689;SDS011;27372;42.658;23.256;2023-07-20T16:44:50;7.25;;;2.50;;
41689;SDS011;27372;42.658;23.256;2023-07-20T16:47:16;6.72;;;2.13;;
41689;SDS011;27372;42.658;23.256;2023-07-20T16:49:43;5.15;;;2.30;;
41689;SDS011;27372;42.658;23.256;2023-07-20T16:52:18;7.00;;;2.33;;
41689;SDS011;27372;42.658;23.256;2023-07-20T16:54:53;5.38;;;2.40;;
41689;SDS011;27372;42.658;23.256;2023-07-20T16:57:18;7.30;;;2.88;;
41689;SDS011;27372;42.658;23.256;2023-07-20T16:59:44;11.10;;;2.70;;
41689;SDS011;27372;42.658;23.256;2023-07-20T17:02:12;5.72;;;2.28;;
41689;SDS011;27372;42.658;23.256;2023-07-20T17:04:56;8.05;;;2.67;;
41689;SDS011;27372;42.658;23.256;2023-07-20T17:07:22;6.13;;;2.42;;
41689;SDS011;27372;42.658;23.256;2023-07-20T17:09:51;9.85;;;2.63;;
41689;SDS011;27372;42.658;23.256;2023-07-20T17:12:16;5.20;;;2.58;;
41689;SDS011;27372;42.658;23.256;2023-07-20T17:14:42;9.68;;;3.08;;
41689;SDS011;27372;42.658;23.256;2023-07-20T17:17:21;8.43;;;2.60;;
41689;SDS011;27372;42.658;23.256;2023-07-20T17:19:49;11.68;;;3.00;;
41689;SDS011;27372;42.658;23.256;2023-07-20T17:22:20;8.35;;;3.10;;
41689;SDS011;27372;42.658;23.256;2023-07-20T17:27:14;6.43;;;2.97;;
41689;SDS011;27372;42.658;23.256;2023-07-20T17:29:45;9.75;;;3.53;;
41689;SDS011;27372;42.658;23.256;2023-07-20T17:32:13;9.50;;;4.82;;
41689;SDS011;27372;42.658;23.256;2023-07-20T17:34:41;11.05;;;3.90;;
41689;SDS011;27372;42.658;23.256;2023-07-20T17:42:06;7.72;;;3.90;;
41689;SDS011;27372;42.658;23.256;2023-07-20T17:44:32;15.30;;;4.70;;
41689;SDS011;27372;42.658;23.256;2023-07-20T17:47:03;12.93;;;5.38;;
41689;SDS011;27372;42.658;23.256;2023-07-20T17:49:41;9.90;;;4.05;;
41689;SDS011;27372;42.658;23.256;2023-07-20T17:52:07;6.65;;;2.78;;
41689;SDS011;27372;42.658;23.256;2023-07-20T17:54:50;6.38;;;3.05;;
41689;SDS011;27372;42.658;23.256;2023-07-20T17:57:25;7.43;;;2.90;;
41689;SDS011;27372;42.658;23.256;2023-07-20T18:02:52;8.48;;;2.70;;
41689;SDS011;27372;42.658;23.256;2023-07-20T18:08:21;6.80;;;2.90;;
41689;SDS011;27372;42.658;23.256;2023-07-20T18:13:27;4.23;;;2.17;;
41689;SDS011;27372;42.658;23.256;2023-07-20T18:15:56;7.03;;;2.55;;
41689;SDS011;27372;42.658;23.256;2023-07-20T18:18:24;9.07;;;2.42;;
41689;SDS011;27372;42.658;23.256;2023-07-20T18:20:51;5.07;;;2.20;;
41689;SDS011;27372;42.658;23.256;2023-07-20T18:26:18;5.60;;;2.70;;
41689;SDS011;27372;42.658;23.256;2023-07-20T18:28:57;4.97;;;2.20;;
41689;SDS011;27372;42.658;23.256;2023-07-20T18:31:31;9.10;;;2.85;;
41689;SDS011;27372;42.658;23.256;2023-07-20T18:33:56;6.20;;;2.38;;
41689;SDS011;27372;42.658;23.256;2023-07-20T18:36:28;7.90;;;2.53;;
41689;SDS011;27372;42.658;23.256;2023-07-20T18:38:53;4.68;;;2.47;;
41689;SDS011;27372;42.658;23.256;2023-07-20T18:41:26;5.22;;;2.40;;
41689;SDS011;27372;42.658;23.256;2023-07-20T18:44:03;6.05;;;2.47;;
41689;SDS011;27372;42.658;23.256;2023-07-20T18:48:54;5.43;;;2.38;;
41689;SDS011;27372;42.658;23.256;2023-07-20T18:51:21;7.68;;;2.92;;
41689;SDS011;27372;42.658;23.256;2023-07-20T18:56:23;5.65;;;2.35;;
41689;SDS011;27372;42.658;23.256;2023-07-20T18:58:48;8.30;;;2.80;;
41689;SDS011;27372;42.658;23.256;2023-07-20T19:01:21;15.68;;;2.80;;
41689;SDS011;27372;42.658;23.256;2023-07-20T19:03:53;8.50;;;2.58;;
41689;SDS011;27372;42.658;23.256;2023-07-20T19:06:27;5.93;;;2.67;;
41689;SDS011;27372;42.658;23.256;2023-07-20T19:09:05;6.10;;;2.88;;
41689;SDS011;27372;42.658;23.256;2023-07-20T19:11:30;6.22;;;2.63;;
41689;SDS011;27372;42.658;23.256;2023-07-20T19:14:01;8.38;;;3.22;;
41689;SDS011;27372;42.658;23.256;2023-07-20T19:22:52;5.88;;;3.00;;
41689;SDS011;27372;42.658;23.256;2023-07-20T19:25:22;6.30;;;3.15;;
41689;SDS011;27372;42.658;23.256;2023-07-20T19:27:48;10.57;;;5.07;;
41689;SDS011;27372;42.658;23.256;2023-07-20T19:30:14;10.77;;;5.18;;
41689;SDS011;27372;42.658;23.256;2023-07-20T19:33:12;11.63;;;7.28;;
41689;SDS011;27372;42.658;23.256;2023-07-20T19:35:36;15.57;;;7.95;;
41689;SDS011;27372;42.658;23.256;2023-07-20T19:41:33;15.13;;;6.88;;
41689;SDS011;27372;42.658;23.256;2023-07-20T19:44:11;13.55;;;7.47;;
41689;SDS011;27372;42.658;23.256;2023-07-20T19:46:41;11.48;;;3.30;;
41689;SDS011;27372;42.658;23.256;2023-07-20T19:49:16;6.28;;;3.88;;
41689;SDS011;27372;42.658;23.256;2023-07-20T19:51:43;6.78;;;3.80;;
41689;SDS011;27372;42.658;23.256;2023-07-20T19:54:12;7.70;;;3.30;;
41689;SDS011;27372;42.658;23.256;2023-07-20T19:56:37;6.97;;;3.20;;
41689;SDS011;27372;42.658;23.256;2023-07-20T19:59:03;7.30;;;2.95;;
41689;SDS011;27372;42.658;23.256;2023-07-20T20:01:29;4.75;;;2.72;;
41689;SDS011;27372;42.658;23.256;2023-07-20T20:03:54;8.23;;;2.50;;
41689;SDS011;27372;42.658;23.256;2023-07-20T20:06:21;7.38;;;3.00;;
41689;SDS011;27372;42.658;23.256;2023-07-20T20:08:47;8.02;;;2.97;;
41689;SDS011;27372;42.658;23.256;2023-07-20T20:11:12;7.13;;;2.88;;
41689;SDS011;27372;42.658;23.256;2023-07-20T20:13:44;5.57;;;2.80;;
41689;SDS011;27372;42.658;23.256;2023-07-20T20:16:09;5.65;;;3.00;;
41689;SDS011;27372;42.658;23.256;2023-07-20T20:18:34;7.88;;;3.30;;
41689;SDS011;27372;42.658;23.256;2023-07-20T20:21:07;6.30;;;3.40;;
41689;SDS011;27372;42.658;23.256;2023-07-20T20:23:41;7.10;;;3.35;;
41689;SDS011;27372;42.658;23.256;2023-07-20T20:26:10;9.30;;;3.10;;
41689;SDS011;27372;42.658;23.256;2023-07-20T20:28:35;4.85;;;3.13;;
41689;SDS011;27372;42.658;23.256;2023-07-20T20:31:01;10.43;;;3.10;;